Time;durP1;ratioP1;P1;durP2;ratioP2;P2;SDS_P1;SDS_P2;PMS_P1;PMS_P2;Temp;Humidity;BMP_temperature;BMP_pressure;BME280_temperature;BME280_humidity;BME280_pressure;Samples;Min_cycle;Max_cycle;Signal;HPM_P1;HPM_P2
2024/03/02 00:01:20;;;;;;;22.63;12.65;;;;;;;11.53;58.80;98477.00;4969233;28;20035;-68
2024/03/02 00:03:46;;;;;;;17.70;12.23;;;;;;;11.48;59.00;98471.31;4953106;28;20039;-68
2024/03/02 00:06:11;;;;;;;19.13;12.68;;;;;;;11.52;58.78;98475.34;4968864;28;20073;-68
2024/03/02 00:08:37;;;;;;;22.60;12.95;;;;;;;11.52;59.04;98472.72;4952922;28;20031;-68
2024/03/02 00:11:02;;;;;;;22.33;13.27;;;;;;;11.52;58.79;98467.50;4968332;28;20035;-68
2024/03/02 00:13:29;;;;;;;21.40;13.45;;;;;;;11.48;59.01;98466.94;4953645;29;20027;-69
2024/03/02 00:15:56;;;;;;;19.88;13.25;;;;;;;11.52;59.11;98467.50;4968904;28;20042;-69
2024/03/02 00:18:30;;;;;;;22.15;12.98;;;;;;;11.54;58.90;98465.56;4968941;28;20438;-69
2024/03/02 00:20:56;;;;;;;25.05;13.52;;;;;;;11.55;58.72;98454.16;4969152;28;20031;-69
2024/03/02 00:23:22;;;;;;;20.27;13.27;;;;;;;11.55;59.28;98464.63;4953259;28;20030;-69
2024/03/02 00:25:55;;;;;;;25.73;14.15;;;;;;;11.53;59.25;98462.13;4954182;29;20106;-68
2024/03/02 00:28:22;;;;;;;23.35;13.93;;;;;;;11.56;59.00;98476.75;4952940;29;20502;-68
2024/03/02 00:30:57;;;;;;;27.02;15.13;;;;;;;11.56;59.42;98464.50;4969312;28;20400;-68
2024/03/02 00:33:23;;;;;;;23.52;14.40;;;;;;;11.50;59.27;98451.13;4954004;29;20031;-67
2024/03/02 00:35:49;;;;;;;24.67;15.25;;;;;;;11.56;59.51;98448.00;4969261;28;20031;-68
2024/03/02 00:38:15;;;;;;;26.95;15.63;;;;;;;11.54;59.46;98448.13;4968830;28;20412;-67
2024/03/02 00:40:44;;;;;;;30.35;16.02;;;;;;;11.51;59.91;98437.94;4952849;28;20040;-68
2024/03/02 00:43:28;;;;;;;;;;;;;;;11.57;59.79;98444.41;4953148;29;20118;-67
2024/03/02 00:45:53;;;;;;;28.70;16.17;;;;;;;11.56;59.58;98437.53;4953379;28;19918;-67
2024/03/02 00:48:19;;;;;;;26.52;15.52;;;;;;;11.54;59.77;98428.97;4952493;29;20055;-67
2024/03/02 00:50:45;;;;;;;27.75;16.15;;;;;;;11.53;60.05;98422.13;4952966;29;20023;-67
2024/03/02 00:53:11;;;;;;;28.40;16.08;;;;;;;11.53;59.99;98422.13;4952806;28;20130;-67
2024/03/02 00:55:37;;;;;;;29.92;16.90;;;;;;;11.49;60.32;98424.13;4951610;28;20051;-67
2024/03/02 00:58:02;;;;;;;30.60;16.52;;;;;;;11.54;60.35;98436.81;4972113;28;20097;-67
2024/03/02 01:00:28;;;;;;;29.70;16.10;;;;;;;11.55;60.00;98430.66;4956366;29;20110;-67
2024/03/02 01:02:53;;;;;;;28.58;16.02;;;;;;;11.51;60.21;98424.84;4957545;28;20042;-67
2024/03/02 01:05:19;;;;;;;39.85;18.27;;;;;;;11.56;60.43;98440.16;4972207;28;20554;-67
2024/03/02 01:07:44;;;;;;;34.28;17.35;;;;;;;11.55;60.07;98436.69;4957500;28;20035;-67
2024/03/02 01:10:10;;;;;;;34.40;15.93;;;;;;;11.50;60.46;98430.22;4955775;28;20027;-67
2024/03/02 01:12:36;;;;;;;25.95;15.98;;;;;;;11.49;60.40;98428.56;4955728;29;20403;-67
2024/03/02 01:15:03;;;;;;;31.25;16.48;;;;;;;11.49;60.31;98429.38;4955598;28;20054;-67
2024/03/02 01:17:29;;;;;;;28.25;16.85;;;;;;;11.56;59.93;98434.94;4955912;29;20451;-67
2024/03/02 01:19:54;;;;;;;33.25;17.35;;;;;;;11.55;60.07;98428.03;4971132;28;20039;-67
2024/03/02 01:22:24;;;;;;;33.33;16.92;;;;;;;11.49;60.14;98424.13;4956102;29;20031;-67
2024/03/02 01:24:50;;;;;;;30.27;16.58;;;;;;;11.50;60.36;98423.19;4971401;28;20078;-67
2024/03/02 01:27:15;;;;;;;33.10;17.63;;;;;;;11.55;60.15;98422.81;4971691;28;20039;-67
2024/03/02 01:29:41;;;;;;;33.95;17.35;;;;;;;11.53;60.03;98419.50;4955848;29;20035;-68
2024/03/02 01:32:06;;;;;;;35.78;18.13;;;;;;;11.54;60.45;98414.13;4955780;29;20506;-67
2024/03/02 01:34:32;;;;;;;33.50;16.55;;;;;;;11.52;60.24;98416.03;4956916;28;20031;-68
2024/03/02 01:36:57;;;;;;;27.90;16.65;;;;;;;11.49;60.13;98407.63;4971626;28;20035;-68
2024/03/02 01:39:23;;;;;;;29.85;17.30;;;;;;;11.50;60.10;98407.50;4971720;28;20035;-68
2024/03/02 01:41:48;;;;;;;33.03;16.60;;;;;;;11.53;60.25;98411.66;4939616;29;20031;-67
2024/03/02 01:44:14;;;;;;;33.22;17.85;;;;;;;11.52;60.15;98410.81;4955427;28;20047;-68
2024/03/02 01:46:39;;;;;;;32.83;17.33;;;;;;;11.54;60.41;98413.28;4956577;28;20054;-68
2024/03/02 01:49:05;;;;;;;28.85;17.10;;;;;;;11.53;60.47;98407.25;4971793;28;20387;-67
2024/03/02 01:51:30;;;;;;;29.58;16.65;;;;;;;11.55;60.27;98412.34;4955558;29;20384;-67
2024/03/02 01:53:56;;;;;;;31.00;16.58;;;;;;;11.53;60.30;98411.66;4955322;29;20031;-67
2024/03/02 01:56:21;;;;;;;33.40;17.35;;;;;;;11.53;60.35;98417.69;4971514;28;20043;-67
2024/03/02 01:58:47;;;;;;;30.50;17.00;;;;;;;11.53;60.15;98417.69;4955360;29;20035;-69
2024/03/02 02:01:12;;;;;;;34.80;17.35;;;;;;;11.53;60.49;98411.66;4971302;28;20403;-67
2024/03/02 02:03:38;;;;;;;28.00;16.35;;;;;;;11.54;60.44;98408.06;4956501;28;20027;-67
2024/03/02 02:06:03;;;;;;;31.67;17.23;;;;;;;11.54;60.36;98414.13;4955313;28;20043;-69
2024/03/02 02:08:29;;;;;;;29.80;16.42;;;;;;;11.52;60.25;98412.59;4954036;28;20031;-68
2024/03/02 02:10:54;;;;;;;32.22;17.98;;;;;;;11.53;60.17;98402.03;4971455;28;20038;-68
2024/03/02 02:13:20;;;;;;;31.30;16.88;;;;;;;11.52;60.42;98402.16;4954886;29;20487;-68
2024/03/02 02:15:45;;;;;;;29.90;16.35;;;;;;;11.54;60.44;98406.31;4956038;28;20082;-68
2024/03/02 02:18:11;;;;;;;29.88;16.98;;;;;;;11.54;60.29;98400.22;4938930;29;20414;-68
2024/03/02 02:20:36;;;;;;;31.13;17.38;;;;;;;11.52;60.22;98402.16;4956106;28;20039;-67
2024/03/02 02:23:03;;;;;;;30.17;15.85;;;;;;;11.48;60.37;98393.75;4954739;28;20043;-68
2024/03/02 02:25:29;;;;;;;27.42;16.15;;;;;;;11.49;60.05;98403.22;4971410;28;20106;-67
2024/03/02 02:27:55;;;;;;;28.25;15.68;;;;;;;11.51;60.27;98398.72;4971241;28;20135;-68
2024/03/02 02:30:28;;;;;;;30.58;16.10;;;;;;;11.45;60.32;98388.78;4970764;28;20506;-67
2024/03/02 02:32:53;;;;;;;30.00;16.88;;;;;;;11.52;60.22;98410.00;4955891;29;20522;-67
2024/03/02 02:35:19;;;;;;;29.73;16.42;;;;;;;11.53;59.96;98403.81;4954794;28;20047;-67
2024/03/02 02:37:47;;;;;;;28.75;15.90;;;;;;;11.52;60.34;98410.00;4954455;29;20035;-69
2024/03/02 02:40:13;;;;;;;30.48;15.73;;;;;;;11.48;60.24;98412.06;4954587;29;20380;-68
2024/03/02 02:42:39;;;;;;;29.05;16.30;;;;;;;11.47;60.18;98405.16;4970633;28;20042;-67
2024/03/02 02:45:06;;;;;;;28.83;16.30;;;;;;;11.51;59.79;98411.78;4970455;28;20042;-67
2024/03/02 02:47:34;;;;;;;24.88;15.15;;;;;;;11.51;59.88;98408.31;4953946;28;20065;-67
2024/03/02 02:50:00;;;;;;;27.48;15.25;;;;;;;11.52;60.00;98410.00;4955335;28;20038;-68
2024/03/02 02:52:32;;;;;;;31.02;15.80;;;;;;;11.51;60.05;98413.56;4955505;28;20031;-68
2024/03/02 02:54:58;;;;;;;28.85;15.93;;;;;;;11.49;60.11;98407.63;4954725;29;20035;-67
2024/03/02 02:57:23;;;;;;;28.08;15.30;;;;;;;11.47;59.59;98410.38;4954074;29;20094;-67
2024/03/02 02:59:49;;;;;;;31.60;15.63;;;;;;;11.51;59.81;98411.78;4954613;28;20043;-69
2024/03/02 03:02:14;;;;;;;29.38;14.93;;;;;;;11.49;59.75;98405.84;4955267;28;20027;-67
2024/03/02 03:04:40;;;;;;;29.98;15.20;;;;;;;11.51;59.91;98410.94;4954138;28;20059;-66
2024/03/02 03:07:05;;;;;;;27.10;15.35;;;;;;;11.52;59.77;98410.00;4970408;28;20043;-67
2024/03/02 03:09:32;;;;;;;27.20;16.00;;;;;;;11.47;59.69;98404.34;4955210;28;20484;-67
2024/03/02 03:11:57;;;;;;;27.98;15.18;;;;;;;11.51;59.45;98408.31;4969883;28;20028;-67
2024/03/02 03:14:23;;;;;;;30.67;16.80;;;;;;;11.49;59.68;98408.47;4955253;28;20050;-67
2024/03/02 03:16:48;;;;;;;29.48;16.77;;;;;;;11.50;59.70;98404.06;4954017;29;20428;-68
2024/03/02 03:19:14;;;;;;;30.95;17.38;;;;;;;11.49;59.74;98405.03;4953753;28;20083;-67
2024/03/02 03:21:39;;;;;;;30.52;17.85;;;;;;;11.49;59.77;98405.84;4953825;28;20035;-67
2024/03/02 03:24:05;;;;;;;34.25;19.25;;;;;;;11.48;59.51;98398.13;4969551;28;20039;-67
2024/03/02 03:26:30;;;;;;;35.75;19.42;;;;;;;11.47;59.70;98399.94;4953489;28;20031;-67
2024/03/02 03:28:55;;;;;;;36.65;19.92;;;;;;;11.43;59.85;98387.25;4953805;28;20047;-67
2024/03/02 03:31:21;;;;;;;35.72;19.45;;;;;;;11.47;59.91;98393.88;4953968;29;20027;-67
2024/03/02 03:33:46;;;;;;;38.47;19.23;;;;;;;11.46;59.51;98393.03;4953045;29;20039;-68
2024/03/02 03:36:12;;;;;;;35.78;18.83;;;;;;;11.47;59.84;98397.31;4953158;29;20036;-67
2024/03/02 03:38:37;;;;;;;32.05;17.85;;;;;;;11.41;59.61;98377.75;4953674;28;20043;-68
2024/03/02 03:41:03;;;;;;;40.17;19.02;;;;;;;11.45;59.48;98393.16;4969928;28;20107;-67
2024/03/02 03:43:29;;;;;;;36.10;19.20;;;;;;;11.44;59.71;98388.91;4954448;29;20035;-69
2024/03/02 03:45:54;;;;;;;35.00;19.15;;;;;;;11.45;59.76;98393.16;4937533;29;20431;-67
2024/03/02 03:48:20;;;;;;;32.97;19.90;;;;;;;11.36;59.74;98384.34;4954574;28;20067;-68
2024/03/02 03:50:45;;;;;;;35.67;19.95;;;;;;;11.43;59.51;98398.53;4953175;28;20398;-68
2024/03/02 03:53:11;;;;;;;31.98;19.65;;;;;;;11.38;59.46;98391.06;4953244;29;20034;-68
2024/03/02 03:55:36;;;;;;;29.75;17.85;;;;;;;11.40;59.72;98394.41;4953348;28;20027;-68
2024/03/02 03:58:02;;;;;;;30.15;18.10;;;;;;;11.39;59.40;98397.97;4953401;28;20469;-67
2024/03/02 04:00:27;;;;;;;35.00;17.98;;;;;;;11.37;59.58;98397.28;4954378;28;20031;-68
2024/03/02 04:02:53;;;;;;;32.30;18.65;;;;;;;11.37;59.68;98397.28;4953126;29;20050;-67
2024/03/02 04:05:18;;;;;;;31.42;19.10;;;;;;;11.36;59.50;98395.59;4952826;29;20035;-70
2024/03/02 04:07:43;;;;;;;32.90;18.83;;;;;;;11.34;59.60;98389.69;4953244;28;20479;-67
2024/03/02 04:10:10;;;;;;;35.97;19.13;;;;;;;11.28;59.56;98390.22;4952956;29;20058;-67
2024/03/02 04:12:39;;;;;;;34.13;18.70;;;;;;;11.33;59.73;98397.66;4936978;29;20031;-67
2024/03/02 04:15:06;;;;;;;30.98;18.08;;;;;;;11.32;59.56;98396.00;4968778;28;20034;-67
2024/03/02 04:17:32;;;;;;;32.25;17.02;;;;;;;11.33;59.76;98403.72;4952202;29;20047;-69
2024/03/02 04:19:58;;;;;;;31.45;16.80;;;;;;;11.33;59.95;98397.66;4954333;28;20027;-67
2024/03/02 04:22:24;;;;;;;32.03;18.05;;;;;;;11.33;59.79;98395.06;4954099;28;20498;-67
2024/03/02 04:24:49;;;;;;;30.63;16.60;;;;;;;11.32;59.82;98396.00;4954149;28;20418;-67
2024/03/02 04:27:14;;;;;;;31.52;16.75;;;;;;;11.33;59.88;98392.44;4952839;29;20086;-66
2024/03/02 04:29:40;;;;;;;32.00;17.65;;;;;;;11.33;59.88;98395.88;4953972;28;20047;-68
2024/03/02 04:32:06;;;;;;;29.08;15.73;;;;;;;11.30;59.73;98390.91;4954779;28;20415;-70
2024/03/02 04:34:32;;;;;;;32.53;16.25;;;;;;;11.35;59.79;98400.97;4972634;28;20019;-69
2024/03/02 04:36:57;;;;;;;30.45;16.02;;;;;;;11.34;59.62;98394.91;4956875;29;20035;-68
2024/03/02 04:39:22;;;;;;;31.90;16.02;;;;;;;11.34;59.90;98399.31;4956641;29;20495;-68
2024/03/02 04:41:48;;;;;;;27.17;15.18;;;;;;;11.33;59.62;98393.25;4957681;28;20058;-69
2024/03/02 04:44:14;;;;;;;28.88;16.23;;;;;;;11.35;59.62;98390.50;4956813;29;20098;-68
2024/03/02 04:46:39;;;;;;;28.48;15.65;;;;;;;11.33;59.80;98395.88;4957529;28;20041;-70
2024/03/02 04:49:05;;;;;;;31.52;15.77;;;;;;;11.33;59.82;98395.88;4957602;28;20038;-69
2024/03/02 04:51:30;;;;;;;28.33;15.70;;;;;;;11.32;59.71;98394.22;4956527;28;20039;-69
2024/03/02 04:53:55;;;;;;;31.05;15.65;;;;;;;11.30;59.85;98383.06;4972305;28;20028;-69
2024/03/02 04:56:44;;;;;;;31.35;15.82;;;;;;;11.35;59.83;98386.13;4956420;29;20035;-69
2024/03/02 04:59:09;;;;;;;;;;;;;;;11.35;59.60;98385.28;4957094;28;20074;-69
2024/03/02 05:01:34;;;;;;;26.98;14.57;;;;;;;11.28;59.81;98384.97;4957648;28;19922;-68
2024/03/02 05:04:00;;;;;;;30.45;15.10;;;;;;;11.31;59.65;98387.34;4972399;28;20400;-67
2024/03/02 05:06:25;;;;;;;36.30;19.17;;;;;;;11.23;59.87;98384.56;4956851;29;20027;-68
2024/03/02 05:08:51;;;;;;;35.15;20.33;;;;;;;11.25;59.68;98392.25;4972270;28;20507;-69
2024/03/02 05:14:00;;;;;;;38.42;20.02;;;;;;;11.32;59.85;98402.06;4969665;28;20046;-68
2024/03/02 05:16:25;;;;;;;35.13;20.00;;;;;;;11.33;59.74;98400.28;4957070;28;20396;-68
2024/03/02 05:18:51;;;;;;;38.15;20.73;;;;;;;11.29;59.73;98404.09;4957096;28;20047;-70
2024/03/02 05:21:16;;;;;;;36.38;20.33;;;;;;;11.29;59.83;98401.47;4957243;28;20035;-69
2024/03/02 05:23:42;;;;;;;31.77;18.98;;;;;;;11.33;59.81;98408.94;4971906;28;20094;-68
2024/03/02 05:26:08;;;;;;;35.58;20.30;;;;;;;11.33;59.82;98405.50;4956898;28;20502;-68
2024/03/02 05:28:33;;;;;;;36.05;19.90;;;;;;;11.31;59.53;98410.84;4955387;28;20066;-68
2024/03/02 05:30:58;;;;;;;36.25;19.50;;;;;;;11.36;59.83;98419.13;4971869;28;20035;-69
2024/03/02 05:33:24;;;;;;;33.40;18.67;;;;;;;11.36;59.85;98424.34;4971631;28;20035;-68
2024/03/02 05:35:50;;;;;;;34.47;18.65;;;;;;;11.37;59.60;98428.63;4956714;28;20035;-68
2024/03/02 05:38:15;;;;;;;34.80;19.40;;;;;;;11.36;59.90;98424.34;4955875;28;20051;-69
2024/03/02 05:40:41;;;;;;;35.35;18.98;;;;;;;11.38;59.47;98416.38;4956621;29;20119;-69
2024/03/02 05:43:06;;;;;;;35.85;19.65;;;;;;;11.38;59.53;98414.59;4955086;28;20035;-68
2024/03/02 05:45:32;;;;;;;35.03;17.75;;;;;;;11.41;59.63;98409.09;4956313;28;20094;-69
2024/03/02 05:47:58;;;;;;;33.88;17.83;;;;;;;11.44;59.67;98408.03;4970760;28;20419;-68
2024/03/02 05:50:23;;;;;;;33.80;17.73;;;;;;;11.45;59.41;98416.69;4955956;28;20053;-70
2024/03/02 05:52:49;;;;;;;30.75;17.65;;;;;;;11.47;59.48;98417.41;4936933;29;20019;-69
2024/03/02 05:55:14;;;;;;;33.05;17.73;;;;;;;11.47;59.49;98417.41;4953214;28;20043;-69
2024/03/02 06:00:23;;;;;;;29.20;14.85;;;;;;;11.47;59.38;98405.16;4954276;29;20086;-68
2024/03/02 06:02:49;;;;;;;26.85;15.20;;;;;;;11.47;59.41;98391.28;4954990;28;20032;-69
2024/03/02 06:05:15;;;;;;;25.67;14.13;;;;;;;11.52;59.74;98396.91;4955099;28;20039;-68
2024/03/02 06:07:41;;;;;;;24.33;12.98;;;;;;;11.52;59.43;98389.91;4955067;28;20090;-69
2024/03/02 06:10:08;;;;;;;25.42;13.75;;;;;;;11.55;59.26;98389.63;4954972;29;20039;-69
2024/03/02 06:12:34;;;;;;;25.43;13.40;;;;;;;11.57;59.64;98389.50;4956118;28;20062;-69
2024/03/02 06:14:59;;;;;;;24.58;13.18;;;;;;;11.56;59.49;98385.25;4970932;28;20031;-69
2024/03/02 06:17:25;;;;;;;25.83;14.35;;;;;;;11.56;59.25;98399.16;4954817;29;20147;-69
2024/03/02 06:19:50;;;;;;;25.48;13.90;;;;;;;11.66;59.15;98408.81;4971309;28;20035;-70
2024/03/02 06:22:16;;;;;;;24.30;13.48;;;;;;;11.63;59.49;98406.47;4970746;28;20467;-69
2024/03/02 06:24:42;;;;;;;28.73;14.07;;;;;;;11.70;59.37;98418.88;4938745;29;20043;-70
2024/03/02 06:27:07;;;;;;;27.45;13.73;;;;;;;11.72;59.32;98423.97;4955570;28;20411;-69
2024/03/02 06:29:33;;;;;;;29.80;14.80;;;;;;;11.73;59.30;98418.63;4954433;29;20031;-69
2024/03/02 06:31:59;;;;;;;27.92;14.57;;;;;;;11.76;59.43;98420.13;4970552;28;20035;-69
2024/03/02 06:34:25;;;;;;;28.13;13.85;;;;;;;11.81;59.06;98422.34;4946231;28;20419;-68
2024/03/02 06:36:50;;;;;;;27.20;14.15;;;;;;;11.79;59.29;98414.63;4936192;29;20055;-69
2024/03/02 06:39:16;;;;;;;28.80;14.75;;;;;;;11.90;59.20;98418.94;4961025;28;20031;-69
2024/03/02 06:41:42;;;;;;;28.63;14.27;;;;;;;11.91;58.81;98404.91;4947966;29;20072;-69
2024/03/02 06:44:08;;;;;;;27.75;14.38;;;;;;;11.93;58.72;98401.22;4967254;28;20027;-69
2024/03/02 06:46:33;;;;;;;33.45;16.40;;;;;;;11.98;58.95;98398.19;4953727;29;20105;-69
2024/03/02 06:48:59;;;;;;;28.90;15.60;;;;;;;12.02;58.53;98403.97;4955740;28;20027;-68
2024/03/02 06:51:24;;;;;;;38.80;19.25;;;;;;;12.07;58.56;98380.88;4953982;29;20534;-70
2024/03/02 06:53:50;;;;;;;40.22;19.60;;;;;;;12.12;58.58;98368.22;4953443;28;20043;-68
2024/03/02 06:56:15;;;;;;;47.50;23.23;;;;;;;12.19;58.23;98385.03;4953866;29;20046;-69
2024/03/02 06:58:42;;;;;;;41.60;23.23;;;;;;;12.23;58.10;98407.34;4969998;28;20492;-69
2024/03/02 07:01:09;;;;;;;40.85;21.27;;;;;;;12.26;58.08;98408.84;4953871;29;20491;-77
2024/03/02 07:03:35;;;;;;;42.95;22.45;;;;;;;12.23;58.13;98390.81;4950343;29;20031;-70
2024/03/02 07:06:00;;;;;;;43.78;22.10;;;;;;;12.28;58.08;98422.63;4953845;29;20039;-70
2024/03/02 07:08:26;;;;;;;41.42;21.38;;;;;;;12.16;57.79;98385.31;4937902;28;20067;-77
2024/03/02 07:10:51;;;;;;;39.70;21.52;;;;;;;12.33;58.12;98423.03;4970493;28;20078;-76
2024/03/02 07:13:17;;;;;;;38.38;15.00;;;;;;;12.44;65.16;98419.47;4953564;29;20432;-76
2024/03/02 07:18:10;;;;;;;27.08;14.18;;;;;;;12.48;62.15;98405.97;4954055;29;20066;-77
2024/03/02 07:20:36;;;;;;;21.27;12.15;;;;;;;12.61;65.62;98395.22;4969797;28;20042;-75
2024/03/02 07:23:02;;;;;;;24.15;13.00;;;;;;;12.76;63.56;98397.41;4938210;28;20411;-72
2024/03/02 07:25:27;;;;;;;35.47;12.80;;;;;;;12.91;64.97;98403.88;4953888;29;20039;-73
2024/03/02 07:27:53;;;;;;;32.40;12.63;;;;;;;12.92;63.92;98397.69;4953719;29;20395;-75
2024/03/02 07:30:18;;;;;;;26.50;11.57;;;;;;;12.95;62.92;98402.66;4954307;28;20054;-72
2024/03/02 07:32:45;;;;;;;26.10;10.82;;;;;;;13.52;71.99;98392.19;4953354;28;20471;-71
2024/03/02 07:35:14;;;;;;;50.78;9.77;;;;;;;13.68;70.82;98396.00;4954825;28;20053;-73
2024/03/02 07:37:41;;;;;;;22.08;10.20;;;;;;;13.73;68.89;98391.13;4953239;28;20023;-75
2024/03/02 07:40:09;;;;;;;21.55;10.52;;;;;;;13.72;67.11;98410.44;4937832;29;20195;-73
2024/03/02 07:42:35;;;;;;;;;;;;;;;13.79;70.87;98422.03;4957190;29;20047;-75
2024/03/02 07:45:00;;;;;;;31.30;10.35;;;;;;;13.77;70.26;98441.50;4972335;28;20396;-72
2024/03/02 07:47:26;;;;;;;18.90;9.88;;;;;;;13.68;68.33;98448.44;4953665;28;20055;-80
2024/03/02 07:49:51;;;;;;;16.00;10.18;;;;;;;13.53;67.19;98430.53;4952265;29;20031;-74
2024/03/02 07:52:17;;;;;;;18.00;10.52;;;;;;;13.42;66.68;98449.06;4951472;29;20467;-73
2024/03/02 07:54:42;;;;;;;20.50;10.27;;;;;;;13.24;66.43;98443.69;4967137;28;20050;-74
2024/03/02 07:57:09;;;;;;;25.10;11.60;;;;;;;13.21;65.87;98444.78;4968807;28;20035;-74
2024/03/02 07:59:34;;;;;;;24.52;11.15;;;;;;;13.13;65.84;98428.13;4936338;29;20039;-76
2024/03/02 08:02:00;;;;;;;23.77;11.48;;;;;;;13.06;65.40;98440.94;4968463;28;20101;-73
2024/03/02 08:04:26;;;;;;;18.98;10.70;;;;;;;13.00;65.73;98446.78;4951922;28;20034;-76
2024/03/02 08:06:51;;;;;;;23.50;10.95;;;;;;;12.96;65.43;98434.91;4966392;28;20031;-77
2024/03/02 08:09:17;;;;;;;21.20;11.25;;;;;;;12.96;65.40;98434.91;4952385;28;20046;-74
2024/03/02 08:11:42;;;;;;;23.55;11.52;;;;;;;12.95;65.13;98417.53;4968074;28;20058;-75
2024/03/02 08:14:08;;;;;;;23.95;11.60;;;;;;;12.90;65.06;98414.50;4968251;28;20023;-73
2024/03/02 08:16:34;;;;;;;25.38;12.02;;;;;;;12.99;64.69;98417.09;4952939;28;20051;-74
2024/03/02 08:18:59;;;;;;;20.75;11.40;;;;;;;13.11;64.46;98416.94;4952019;28;20503;-74
2024/03/02 08:21:25;;;;;;;17.83;11.07;;;;;;;13.08;64.29;98433.81;4951673;28;20031;-77
2024/03/02 08:23:50;;;;;;;18.67;11.05;;;;;;;13.09;64.71;98445.09;4959616;28;20035;-75
2024/03/02 08:26:16;;;;;;;19.70;10.95;;;;;;;13.00;64.51;98431.88;4948377;28;20115;-80
2024/03/02 08:28:41;;;;;;;21.27;11.45;;;;;;;13.07;64.55;98433.94;4916445;29;20035;-77
2024/03/02 08:31:07;;;;;;;17.38;11.60;;;;;;;13.09;64.42;98424.13;4949778;29;20059;-78
2024/03/02 08:33:33;;;;;;;20.15;12.15;;;;;;;13.06;64.08;98420.00;4949084;28;20028;-79
2024/03/02 08:39:20;;;;;;;22.75;11.57;;;;;;;13.10;63.94;98418.75;4952967;29;20106;-73
2024/03/02 08:41:46;;;;;;;19.40;11.13;;;;;;;13.19;65.00;98425.78;4951283;29;20043;-81
2024/03/02 08:44:12;;;;;;;18.42;11.00;;;;;;;13.27;65.97;98401.47;4965772;28;20045;-70
2024/03/02 08:46:37;;;;;;;20.23;9.60;;;;;;;13.82;73.56;98400.75;4966877;28;20126;-74
2024/03/02 08:49:03;;;;;;;19.30;9.13;;;;;;;13.94;70.87;98404.81;4951532;29;20047;-72
2024/03/02 08:51:28;;;;;;;19.83;9.88;;;;;;;14.00;68.55;98397.34;4966151;28;20090;-74
2024/03/02 08:53:54;;;;;;;17.45;9.77;;;;;;;13.92;67.77;98404.13;4951902;29;20475;-70
2024/03/02 08:56:21;;;;;;;17.13;9.63;;;;;;;14.45;72.82;98422.72;4945666;28;20075;-74
2024/03/02 08:58:47;;;;;;;16.50;8.45;;;;;;;14.54;71.12;98424.47;4925370;29;20036;-68
2024/03/02 09:01:12;;;;;;;13.38;8.98;;;;;;;14.48;68.84;98419.78;4963582;28;20028;-79
2024/03/02 09:03:38;;;;;;;25.92;9.23;;;;;;;14.45;67.64;98406.97;4949144;28;20046;-83
2024/03/02 09:06:03;;;;;;;17.65;10.25;;;;;;;14.38;67.32;98409.38;4932905;29;20046;-84
2024/03/02 09:08:29;;;;;;;18.15;10.15;;;;;;;14.32;66.71;98411.78;4934880;29;20043;-85
2024/03/02 09:10:55;;;;;;;18.33;10.85;;;;;;;14.40;66.14;98411.84;4975066;28;20044;-84
2024/03/02 09:13:21;;;;;;;19.27;9.98;;;;;;;14.54;69.18;98411.31;4979435;28;20043;-77
2024/03/02 09:15:47;;;;;;;21.70;10.57;;;;;;;14.69;66.99;98406.41;4991975;28;20030;-76
2024/03/02 09:18:13;;;;;;;20.98;10.27;;;;;;;14.74;65.56;98408.59;4955893;28;20031;-75
2024/03/02 09:20:38;;;;;;;17.42;9.88;;;;;;;14.69;64.97;98409.03;4939312;29;20035;-76
2024/03/02 09:23:04;;;;;;;16.30;10.25;;;;;;;14.78;64.60;98412.53;4967956;28;20467;-76
2024/03/02 09:25:29;;;;;;;17.40;10.38;;;;;;;14.84;63.99;98402.25;4938917;29;20031;-75
2024/03/02 09:27:55;;;;;;;17.80;10.63;;;;;;;14.90;63.96;98407.88;4953527;28;20023;-77
2024/03/02 09:30:20;;;;;;;18.02;9.82;;;;;;;14.98;64.86;98406.13;4970740;28;20071;-71
2024/03/02 09:32:46;;;;;;;12.23;8.35;;;;;;;15.42;66.67;98407.06;4970184;28;20039;-74
2024/03/02 09:35:12;;;;;;;14.55;8.23;;;;;;;15.66;66.18;98403.75;4970439;28;20047;-72
2024/03/02 09:37:37;;;;;;;20.60;7.78;;;;;;;15.95;65.60;98407.81;4970863;28;20569;-73
2024/03/02 09:40:03;;;;;;;13.85;7.95;;;;;;;16.13;64.28;98415.59;4969974;28;20343;-74
2024/03/02 09:42:29;;;;;;;17.75;9.02;;;;;;;16.15;63.91;98422.38;4954253;28;20126;-73
2024/03/02 09:47:30;;;;;;;16.08;9.43;;;;;;;16.14;61.75;98396.19;5400931;23;20077;-71
2024/03/02 09:49:55;;;;;;;16.80;9.77;;;;;;;16.12;61.38;98406.91;4977174;28;20508;-74
2024/03/02 09:52:23;;;;;;;13.68;9.93;;;;;;;15.97;61.14;98413.75;4961570;28;20141;-76
2024/03/02 09:54:48;;;;;;;13.35;7.82;;;;;;;15.95;64.30;98413.91;4978015;28;20035;-76
2024/03/02 09:59:51;;;;;;;11.87;7.90;;;;;;;16.06;66.23;98418.88;4974708;23;20425;-77
2024/03/02 10:02:18;;;;;;;15.40;9.30;;;;;;;16.36;73.04;98423.75;4959706;28;20047;-79
2024/03/02 10:04:44;;;;;;;17.38;8.95;;;;;;;16.57;69.03;98413.56;4959255;28;20069;-72
2024/03/02 10:07:14;;;;;;;15.00;8.75;;;;;;;16.87;67.81;98421.00;4977631;28;20118;-71
2024/03/02 10:09:40;;;;;;;16.70;9.35;;;;;;;16.99;63.80;98415.22;4975110;28;20521;-72
2024/03/02 10:12:07;;;;;;;18.67;10.00;;;;;;;16.95;62.28;98413.09;4974392;28;20037;-72
2024/03/02 10:14:32;;;;;;;13.73;9.10;;;;;;;16.88;62.21;98423.47;4957941;28;20027;-72
2024/03/02 10:17:08;;;;;;;15.45;10.02;;;;;;;16.85;61.66;98418.50;4942207;28;20114;-75
2024/03/02 10:19:34;;;;;;;16.25;10.10;;;;;;;16.77;61.30;98416.69;4957875;28;20065;-73
2024/03/02 10:22:02;;;;;;;19.88;10.73;;;;;;;16.67;61.06;98416.03;4973958;28;20039;-76
2024/03/02 10:24:28;;;;;;;18.60;11.35;;;;;;;16.58;60.92;98417.84;4941928;28;20089;-75
2024/03/02 10:26:54;;;;;;;17.52;11.18;;;;;;;16.48;60.33;98409.28;4973835;28;20046;-75
2024/03/02 10:29:19;;;;;;;18.85;11.75;;;;;;;16.33;60.13;98398.53;4956997;28;20473;-75
2024/03/02 10:31:45;;;;;;;18.48;12.27;;;;;;;16.26;60.05;98403.63;4941740;28;20050;-75
2024/03/02 10:34:12;;;;;;;20.60;10.20;;;;;;;16.17;63.82;98407.22;4973515;28;20030;-76
2024/03/02 10:36:37;;;;;;;17.33;11.13;;;;;;;16.05;62.61;98405.88;4957499;28;20133;-76
2024/03/02 10:39:03;;;;;;;18.08;10.93;;;;;;;15.90;62.28;98403.03;4957336;28;20035;-75
2024/03/02 10:41:31;;;;;;;18.13;11.32;;;;;;;15.63;62.15;98383.00;4956588;28;20475;-76
2024/03/02 10:43:59;;;;;;;21.60;11.63;;;;;;;15.56;62.03;98390.72;4957512;28;20027;-77
2024/03/02 10:46:28;;;;;;;19.35;12.05;;;;;;;15.43;62.17;98388.50;4957541;28;20046;-76
2024/03/02 10:48:53;;;;;;;17.85;11.38;;;;;;;15.32;62.22;98397.50;4973289;28;20042;-77
2024/03/02 10:51:19;;;;;;;19.73;12.05;;;;;;;15.17;62.29;98397.22;4957291;28;20031;-74
2024/03/02 10:53:44;;;;;;;20.02;11.88;;;;;;;15.15;62.47;98374.72;4957252;28;20031;-74
2024/03/02 10:56:09;;;;;;;20.05;12.02;;;;;;;15.29;61.95;98373.28;4957407;28;20042;-75
2024/03/02 10:58:35;;;;;;;21.35;11.93;;;;;;;15.27;62.09;98367.38;4941217;28;20051;-75
2024/03/02 11:01:02;;;;;;;21.73;12.50;;;;;;;15.26;62.24;98369.19;4973255;28;20038;-75
2024/03/02 11:03:27;;;;;;;20.13;12.88;;;;;;;15.22;62.28;98356.50;4957668;28;20038;-76
2024/03/02 11:05:53;;;;;;;19.67;12.20;;;;;;;15.27;62.25;98360.31;4941253;28;20031;-75
2024/03/02 11:08:19;;;;;;;24.55;12.85;;;;;;;15.27;62.12;98352.41;4956917;28;20031;-76
2024/03/02 11:10:57;;;;;;;19.27;12.45;;;;;;;15.23;62.01;98353.72;4956988;28;20082;-74
2024/03/02 11:13:33;;;;;;;;;;;;;;;15.23;63.01;98361.59;4941438;28;20035;-76
2024/03/02 11:16:20;;;;;;;20.73;11.93;;;;;;;15.13;62.72;98358.25;4973313;28;19914;-76
2024/03/02 11:18:46;;;;;;;21.13;11.15;;;;;;;15.12;62.10;98354.00;4941758;28;20023;-72
2024/03/02 11:21:12;;;;;;;17.98;11.25;;;;;;;15.13;61.91;98339.84;4940966;28;20054;-74
2024/03/02 11:23:37;;;;;;;17.23;10.63;;;;;;;15.29;62.77;98332.06;4957007;28;20113;-75
2024/03/02 11:26:22;;;;;;;17.90;11.13;;;;;;;15.36;62.38;98340.13;4972739;28;20046;-75
2024/03/02 11:28:47;;;;;;;16.13;11.13;;;;;;;15.42;61.95;98331.63;4956801;28;20027;-74
2024/03/02 11:31:13;;;;;;;17.42;11.20;;;;;;;15.52;61.48;98332.31;4948729;29;20086;-74